createdAt,value
2018-11-03T00:00:40.140Z,2.00
2018-11-03T00:03:08.981Z,2.20
2018-11-03T00:05:37.437Z,2.40
2018-11-03T00:08:05.896Z,2.70
2018-11-03T00:10:34.532Z,2.80
2018-11-03T00:13:03.520Z,2.90
2018-11-03T00:15:31.966Z,2.80
2018-11-03T00:18:00.928Z,2.60
2018-11-03T00:20:29.364Z,2.60
2018-11-03T00:22:57.769Z,2.70
2018-11-03T00:25:26.197Z,2.70
2018-11-03T00:27:54.584Z,2.60
2018-11-03T00:30:23.057Z,2.50
2018-11-03T00:32:51.465Z,2.30
2018-11-03T00:35:19.993Z,2.10
2018-11-03T00:37:48.394Z,2.00
2018-11-03T00:40:16.789Z,1.90
2018-11-03T00:42:45.456Z,1.90
2018-11-03T00:45:14.265Z,1.90
2018-11-03T00:47:43.849Z,1.80
2018-11-03T00:50:13.561Z,1.80
2018-11-03T00:52:42.256Z,1.70
2018-11-03T00:55:11.420Z,1.60
2018-11-03T00:57:40.449Z,1.60
2018-11-03T01:00:11.612Z,1.70
2018-11-03T01:02:41.404Z,1.70
2018-11-03T01:05:10.353Z,1.80
2018-11-03T01:07:39.675Z,1.80
2018-11-03T01:10:08.316Z,1.70
2018-11-03T01:12:38.372Z,1.60
2018-11-03T01:15:08.759Z,1.70
2018-11-03T01:17:39.936Z,1.80
2018-11-03T01:20:10.285Z,1.80
2018-11-03T01:22:38.688Z,1.80
2018-11-03T01:25:07.846Z,1.80
2018-11-03T01:27:36.406Z,1.70
2018-11-03T01:30:05.696Z,1.70
2018-11-03T01:32:34.289Z,1.60
2018-11-03T01:35:02.536Z,1.50
2018-11-03T01:37:30.953Z,1.50
2018-11-03T01:39:59.852Z,1.50
2018-11-03T01:42:28.298Z,1.40
2018-11-03T01:44:56.688Z,1.60
2018-11-03T01:47:25.168Z,1.70
2018-11-03T01:49:53.556Z,1.70
2018-11-03T01:52:22.000Z,1.70
2018-11-03T01:54:50.512Z,1.80
2018-11-03T01:57:18.929Z,1.90
2018-11-03T01:59:47.384Z,2.00
2018-11-03T02:02:16.377Z,2.20
2018-11-03T02:04:44.824Z,2.20
2018-11-03T02:07:13.248Z,2.10
2018-11-03T02:09:41.637Z,1.90
2018-11-03T02:12:10.054Z,1.80
2018-11-03T02:14:38.454Z,1.70
2018-11-03T02:17:06.856Z,1.60
2018-11-03T02:19:35.492Z,1.50
2018-11-03T02:22:03.909Z,1.40
2018-11-03T02:24:32.872Z,1.30
2018-11-03T02:27:01.257Z,1.20
2018-11-03T02:29:29.764Z,1.30
2018-11-03T02:31:58.670Z,1.30
2018-11-03T02:34:27.062Z,1.20
2018-11-03T02:36:55.478Z,1.30
2018-11-03T02:39:23.887Z,1.30
2018-11-03T02:41:52.317Z,1.30
2018-11-03T02:44:20.767Z,1.30
2018-11-03T02:46:49.213Z,1.20
2018-11-03T02:49:17.661Z,1.20
2018-11-03T02:51:46.060Z,1.10
2018-11-03T02:54:14.492Z,1.10
2018-11-03T02:56:42.885Z,1.20
2018-11-03T02:59:11.344Z,1.30
2018-11-03T03:01:39.776Z,1.30
2018-11-03T03:04:08.232Z,1.30
2018-11-03T03:06:36.644Z,1.20
2018-11-03T03:09:06.636Z,1.20
2018-11-03T03:11:35.033Z,1.00
2018-11-03T03:14:03.501Z,1.00
2018-11-03T03:16:31.952Z,0.90
2018-11-03T03:19:00.316Z,0.90
2018-11-03T03:21:29.421Z,0.80
2018-11-03T03:23:57.816Z,0.90
2018-11-03T03:26:26.220Z,0.80
2018-11-03T03:28:54.664Z,0.80
2018-11-03T03:31:23.005Z,0.80
2018-11-03T03:33:51.433Z,0.70
2018-11-03T03:36:19.904Z,0.60
2018-11-03T03:38:48.553Z,0.50
2018-11-03T03:41:17.013Z,0.60
2018-11-03T03:43:45.417Z,0.50
2018-11-03T03:46:13.888Z,0.50
2018-11-03T03:48:42.661Z,0.60
2018-11-03T03:51:11.045Z,0.70
2018-11-03T03:53:39.451Z,0.80
2018-11-03T03:56:07.841Z,0.90
2018-11-03T03:58:36.243Z,0.90
2018-11-03T04:01:04.689Z,0.90
2018-11-03T04:03:33.068Z,0.80
2018-11-03T04:06:01.558Z,0.70
2018-11-03T04:08:29.956Z,0.70
2018-11-03T04:10:58.385Z,0.80
2018-11-03T04:13:26.780Z,0.80
2018-11-03T04:15:55.233Z,1.00
2018-11-03T04:18:24.431Z,1.10
2018-11-03T04:20:52.862Z,1.10
2018-11-03T04:23:21.272Z,1.00
2018-11-03T04:25:49.677Z,1.00
2018-11-03T04:28:18.141Z,1.00
2018-11-03T04:30:46.562Z,0.90
2018-11-03T04:33:15.030Z,0.80
2018-11-03T04:35:44.167Z,0.80
2018-11-03T04:38:12.597Z,0.70
2018-11-03T04:40:41.032Z,0.60
2018-11-03T04:43:09.528Z,0.70
2018-11-03T04:45:37.955Z,0.60
2018-11-03T04:48:06.372Z,0.60
2018-11-03T04:50:34.768Z,0.50
2018-11-03T04:53:03.230Z,0.50
2018-11-03T04:55:31.621Z,0.40
2018-11-03T05:00:34.736Z,0.50
2018-11-03T05:03:03.213Z,0.70
2018-11-03T05:05:31.676Z,0.80
2018-11-03T05:08:00.153Z,0.90
2018-11-03T05:10:28.582Z,0.90
2018-11-03T05:12:56.984Z,1.00
2018-11-03T05:15:25.413Z,1.00
2018-11-03T05:17:53.828Z,1.10
2018-11-03T05:20:22.241Z,0.90
2018-11-03T05:22:50.647Z,0.80
2018-11-03T05:25:19.081Z,0.80
2018-11-03T05:27:47.505Z,0.80
2018-11-03T05:30:17.220Z,0.70
2018-11-03T05:32:45.606Z,0.70
2018-11-03T05:35:14.009Z,0.80
2018-11-03T05:37:42.396Z,1.00
2018-11-03T05:40:10.856Z,1.10
2018-11-03T05:42:39.260Z,1.00
2018-11-03T05:45:07.665Z,0.90
2018-11-03T05:47:36.080Z,0.90
2018-11-03T05:50:05.240Z,0.90
2018-11-03T05:52:33.653Z,0.90
2018-11-03T05:55:02.067Z,1.00
2018-11-03T05:57:30.481Z,1.00
2018-11-03T05:59:58.863Z,1.00
2018-11-03T06:02:27.359Z,1.00
2018-11-03T06:04:55.802Z,0.90
2018-11-03T06:07:24.638Z,0.90
2018-11-03T06:09:53.018Z,0.80
2018-11-03T06:12:21.420Z,0.80
2018-11-03T06:14:49.804Z,0.60
2018-11-03T06:17:18.320Z,0.60
2018-11-03T06:19:46.748Z,0.60
2018-11-03T06:22:15.792Z,0.70
2018-11-03T06:24:44.156Z,0.80
2018-11-03T06:27:13.472Z,1.00
2018-11-03T06:29:41.941Z,1.10
2018-11-03T06:32:10.368Z,1.10
2018-11-03T06:34:38.770Z,1.10
2018-11-03T06:37:07.169Z,1.10
2018-11-03T06:39:35.576Z,1.10
2018-11-03T06:42:04.016Z,1.20
2018-11-03T06:44:33.353Z,1.30
2018-11-03T06:47:01.810Z,1.40
2018-11-03T06:49:30.329Z,1.40
2018-11-03T06:51:59.209Z,1.50
2018-11-03T06:54:27.593Z,1.50
2018-11-03T06:56:56.599Z,1.60
2018-11-03T06:59:25.065Z,1.60
2018-11-03T07:01:53.440Z,1.70
2018-11-03T07:04:21.869Z,1.80
2018-11-03T07:06:50.271Z,1.90
2018-11-03T07:09:18.686Z,1.90
2018-11-03T07:11:47.201Z,2.00
2018-11-03T07:14:15.501Z,2.10
2018-11-03T07:16:43.893Z,2.20
2018-11-03T07:19:12.512Z,2.30
2018-11-03T07:21:41.068Z,2.40
2018-11-03T07:24:09.455Z,2.50
2018-11-03T07:26:37.840Z,2.70
2018-11-03T07:29:06.252Z,2.90
2018-11-03T07:31:34.729Z,3.00
2018-11-03T07:34:03.172Z,3.30
2018-11-03T07:36:31.618Z,3.60
2018-11-03T07:39:00.056Z,3.40
2018-11-03T07:41:28.561Z,3.20
2018-11-03T07:43:56.889Z,3.00
2018-11-03T07:46:25.321Z,2.90
2018-11-03T07:48:53.842Z,2.90
2018-11-03T07:51:28.717Z,2.90
2018-11-03T07:53:57.128Z,3.10
2018-11-03T07:56:25.604Z,3.20
2018-11-03T07:58:54.013Z,3.20
2018-11-03T08:01:22.477Z,3.30
2018-11-03T08:03:50.858Z,3.20
2018-11-03T08:06:19.349Z,3.20
2018-11-03T08:08:47.791Z,3.20
2018-11-03T08:11:16.283Z,3.20
2018-11-03T08:13:45.067Z,3.10
2018-11-03T08:16:13.445Z,3.20
2018-11-03T08:18:41.844Z,3.30
2018-11-03T08:21:10.241Z,3.40
2018-11-03T08:23:38.689Z,3.40
2018-11-03T08:26:07.161Z,3.50
2018-11-03T08:28:35.732Z,3.50
2018-11-03T08:31:04.555Z,3.60
2018-11-03T08:33:33.720Z,3.70
2018-11-03T08:36:02.209Z,3.80
2018-11-03T08:38:30.659Z,3.90
2018-11-03T08:40:59.120Z,4.00
2018-11-03T08:43:27.516Z,4.00
2018-11-03T08:45:55.940Z,4.10
2018-11-03T08:48:25.079Z,4.50
2018-11-03T08:50:53.337Z,4.80
2018-11-03T08:53:21.757Z,5.10
2018-11-03T08:55:50.180Z,5.60
2018-11-03T08:58:18.565Z,5.90
2018-11-03T09:00:46.980Z,6.20
2018-11-03T09:03:15.369Z,6.70
2018-11-03T09:05:43.791Z,6.90
2018-11-03T09:08:12.363Z,6.90
2018-11-03T09:10:41.445Z,6.90
2018-11-03T09:13:09.852Z,6.90
2018-11-03T09:15:38.321Z,7.00
2018-11-03T09:18:06.817Z,7.10
2018-11-03T09:20:35.205Z,7.60
2018-11-03T09:23:03.656Z,7.70
2018-11-03T09:25:32.069Z,7.90
2018-11-03T09:28:00.504Z,8.10
2018-11-03T09:30:28.900Z,8.20
2018-11-03T09:32:57.296Z,8.40
2018-11-03T09:35:25.708Z,8.70
2018-11-03T09:37:54.235Z,8.60
2018-11-03T09:40:22.637Z,8.40
2018-11-03T09:42:51.111Z,8.40
2018-11-03T09:45:19.522Z,8.70
2018-11-03T09:47:47.952Z,9.20
2018-11-03T09:50:16.761Z,9.50
2018-11-03T09:52:45.545Z,9.60
2018-11-03T09:55:15.876Z,9.20
2018-11-03T09:57:44.536Z,8.90
2018-11-03T10:00:15.820Z,8.70
2018-11-03T10:02:44.284Z,8.80
2018-11-03T10:05:13.568Z,9.30
2018-11-03T10:07:42.069Z,9.30
2018-11-03T10:10:13.348Z,9.70
2018-11-03T10:12:42.312Z,9.90
2018-11-03T10:15:11.408Z,10.00
2018-11-03T10:17:40.396Z,10.40
2018-11-03T10:20:09.377Z,10.60
2018-11-03T10:22:38.000Z,10.70
2018-11-03T10:25:12.422Z,10.90
2018-11-03T10:27:41.378Z,10.90
2018-11-03T10:30:11.089Z,11.40
2018-11-03T10:32:40.182Z,11.40
2018-11-03T10:35:09.565Z,11.60
2018-11-03T10:37:38.052Z,11.70
2018-11-03T10:40:09.962Z,11.80
2018-11-03T10:42:38.520Z,12.50
2018-11-03T10:45:08.627Z,12.40
2018-11-03T10:47:37.040Z,12.30
2018-11-03T10:50:08.981Z,11.90
2018-11-03T10:52:37.528Z,12.10
2018-11-03T10:55:06.634Z,12.10
2018-11-03T10:57:35.102Z,12.30
2018-11-03T11:00:06.684Z,12.80
2018-11-03T11:02:40.789Z,13.70
2018-11-03T11:05:14.601Z,13.80
2018-11-03T11:07:48.345Z,13.90
2018-11-03T11:11:19.839Z,13.90
2018-11-03T11:13:48.661Z,13.70
2018-11-03T11:16:17.114Z,13.60
2018-11-03T11:18:45.481Z,13.50
2018-11-03T11:21:13.901Z,13.90
2018-11-03T11:23:42.438Z,13.50
2018-11-03T11:26:10.761Z,13.60
2018-11-03T11:28:39.203Z,13.90
2018-11-03T11:31:07.680Z,13.60
2018-11-03T11:33:36.158Z,13.20
2018-11-03T11:36:04.621Z,13.00
2018-11-03T11:38:33.096Z,12.90
2018-11-03T11:41:01.575Z,13.10
2018-11-03T11:43:30.008Z,12.80
2018-11-03T11:45:58.433Z,12.70
2018-11-03T11:48:26.896Z,13.10
2018-11-03T11:50:55.331Z,13.10
2018-11-03T11:53:23.733Z,12.80
2018-11-03T11:55:52.145Z,12.70
2018-11-03T11:58:20.644Z,12.90
2018-11-03T12:00:49.148Z,13.00
2018-11-03T12:03:18.424Z,12.90
2018-11-03T12:05:46.822Z,13.00
2018-11-03T12:08:15.249Z,12.70
2018-11-03T12:10:43.683Z,13.20
2018-11-03T12:13:12.084Z,13.40
2018-11-03T12:15:40.497Z,13.40
2018-11-03T12:18:09.781Z,12.90
2018-11-03T12:20:38.249Z,13.00
2018-11-03T12:23:07.257Z,13.40
2018-11-03T12:25:35.772Z,13.30
2018-11-03T12:28:04.168Z,13.10
2018-11-03T12:30:32.582Z,13.30
2018-11-03T12:33:01.041Z,13.30
2018-11-03T12:35:29.484Z,13.10
2018-11-03T12:37:58.472Z,13.30
2018-11-03T12:40:26.919Z,13.10
2018-11-03T12:42:55.385Z,12.80
2018-11-03T12:45:23.840Z,12.80
2018-11-03T12:47:53.223Z,13.10
2018-11-03T12:50:21.658Z,13.20
2018-11-03T12:52:50.033Z,13.10
2018-11-03T12:55:18.464Z,13.00
2018-11-03T12:57:46.910Z,13.00
2018-11-03T13:00:16.057Z,13.00
2018-11-03T13:02:45.752Z,12.90
2018-11-03T13:05:14.433Z,12.70
2018-11-03T13:07:44.032Z,13.20
2018-11-03T13:10:12.878Z,13.40
2018-11-03T13:12:42.116Z,13.20
2018-11-03T13:15:11.773Z,13.00
2018-11-03T13:17:40.557Z,12.90
2018-11-03T13:20:11.165Z,12.80
2018-11-03T13:22:39.858Z,12.70
2018-11-03T13:25:08.828Z,12.50
2018-11-03T13:27:37.516Z,12.40
2018-11-03T13:30:07.112Z,12.30
2018-11-03T13:32:35.573Z,12.20
2018-11-03T13:35:04.407Z,11.70
2018-11-03T13:37:32.743Z,11.70
2018-11-03T13:40:01.229Z,11.80
2018-11-03T13:42:29.743Z,11.90
2018-11-03T13:44:58.990Z,11.30
2018-11-03T13:47:27.518Z,11.10
2018-11-03T13:49:55.852Z,11.00
2018-11-03T13:52:24.336Z,10.90
2018-11-03T13:54:52.793Z,10.60
2018-11-03T13:57:22.104Z,10.40
2018-11-03T13:59:50.497Z,10.00
2018-11-03T14:02:18.873Z,10.00
2018-11-03T14:04:47.832Z,10.00
2018-11-03T14:07:16.325Z,10.00
2018-11-03T14:09:44.763Z,10.10
2018-11-03T14:12:13.184Z,10.10
2018-11-03T14:14:41.578Z,9.90
2018-11-03T14:17:10.043Z,9.90
2018-11-03T14:19:38.476Z,9.90
2018-11-03T14:22:06.888Z,9.90
2018-11-03T14:24:35.329Z,9.90
2018-11-03T14:27:03.785Z,9.90
2018-11-03T14:29:32.299Z,10.00
2018-11-03T14:32:00.749Z,10.00
2018-11-03T14:34:29.217Z,10.00
2018-11-03T14:36:57.850Z,10.00
2018-11-03T14:39:26.262Z,10.00
2018-11-03T14:41:54.717Z,9.90
2018-11-03T14:44:23.124Z,9.80
2018-11-03T14:46:51.575Z,9.80
2018-11-03T14:49:19.965Z,9.80
2018-11-03T14:51:48.381Z,9.70
2018-11-03T14:54:16.809Z,9.70
2018-11-03T14:56:45.273Z,9.70
2018-11-03T14:59:13.720Z,9.60
2018-11-03T15:01:42.229Z,9.50
2018-11-03T15:04:10.747Z,9.50
2018-11-03T15:06:39.181Z,9.50
2018-11-03T15:09:08.324Z,9.40
2018-11-03T15:11:37.359Z,9.40
2018-11-03T15:14:07.142Z,9.30
2018-11-03T15:16:36.043Z,9.30
2018-11-03T15:19:04.456Z,9.20
2018-11-03T15:21:32.909Z,9.10
2018-11-03T15:24:01.320Z,9.00
2018-11-03T15:26:29.758Z,8.90
2018-11-03T15:28:58.261Z,8.90
2018-11-03T15:31:26.823Z,8.70
2018-11-03T15:33:55.539Z,8.60
2018-11-03T15:36:23.937Z,8.50
2018-11-03T15:38:52.349Z,8.40
2018-11-03T15:41:20.921Z,8.30
2018-11-03T15:43:49.285Z,8.20
2018-11-03T15:46:17.937Z,8.10
2018-11-03T15:48:46.349Z,7.90
2018-11-03T15:51:14.780Z,7.70
2018-11-03T15:53:43.281Z,7.50
2018-11-03T15:56:11.688Z,7.40
2018-11-03T15:58:40.645Z,7.20
2018-11-03T16:01:09.124Z,7.10
2018-11-03T16:03:37.529Z,6.90
2018-11-03T16:06:06.192Z,6.90
2018-11-03T16:08:34.647Z,6.70
2018-11-03T16:11:03.226Z,6.60
2018-11-03T16:13:31.780Z,6.40
2018-11-03T16:16:00.184Z,6.30
2018-11-03T16:18:29.631Z,6.10
2018-11-03T16:20:58.098Z,6.00
2018-11-03T16:23:26.568Z,5.90
2018-11-03T16:25:55.255Z,5.80
2018-11-03T16:28:23.584Z,5.70
2018-11-03T16:30:52.102Z,5.60
2018-11-03T16:33:21.485Z,5.40
2018-11-03T16:35:49.913Z,5.30
2018-11-03T16:38:18.421Z,5.10
2018-11-03T16:40:46.915Z,5.00
2018-11-03T16:43:15.350Z,4.90
2018-11-03T16:45:44.831Z,4.90
2018-11-03T16:48:14.454Z,4.80
2018-11-03T16:50:42.903Z,4.70
2018-11-03T16:53:11.314Z,4.70
2018-11-03T16:55:39.862Z,4.70
2018-11-03T16:58:08.165Z,4.60
2018-11-03T17:00:36.697Z,4.60
2018-11-03T17:03:05.331Z,4.40
2018-11-03T17:05:33.737Z,4.30
2018-11-03T17:08:03.892Z,4.30
2018-11-03T17:10:32.293Z,4.30
2018-11-03T17:13:01.701Z,4.30
2018-11-03T17:15:31.003Z,4.20
2018-11-03T17:17:59.406Z,4.20
2018-11-03T17:20:27.860Z,4.20
2018-11-03T17:22:56.261Z,4.20
2018-11-03T17:25:24.689Z,4.20
2018-11-03T17:27:53.750Z,4.20
2018-11-03T17:30:22.191Z,4.00
2018-11-03T17:32:50.577Z,4.00
2018-11-03T17:35:19.004Z,4.10
2018-11-03T17:37:48.017Z,4.20
2018-11-03T17:40:16.462Z,4.10
2018-11-03T17:42:44.885Z,3.90
2018-11-03T17:45:13.595Z,3.90
2018-11-03T17:47:42.065Z,3.80
2018-11-03T17:50:12.041Z,3.70
2018-11-03T17:52:40.780Z,3.80
2018-11-03T17:55:09.773Z,3.60
2018-11-03T17:57:38.250Z,3.80
2018-11-03T18:00:10.763Z,3.70
2018-11-03T18:02:39.108Z,3.60
2018-11-03T18:05:08.118Z,3.50
2018-11-03T18:07:37.160Z,3.50
2018-11-03T18:10:06.869Z,3.40
2018-11-03T18:12:35.305Z,3.30
2018-11-03T18:15:05.108Z,3.20
2018-11-03T18:17:33.541Z,3.20
2018-11-03T18:20:01.986Z,3.10
2018-11-03T18:22:30.453Z,3.00
2018-11-03T18:24:58.878Z,3.00
2018-11-03T18:27:27.284Z,2.90
2018-11-03T18:29:55.736Z,2.80
2018-11-03T18:32:24.180Z,2.70
2018-11-03T18:34:52.591Z,2.70
2018-11-03T18:37:21.016Z,2.70
2018-11-03T18:39:49.478Z,2.70
2018-11-03T18:42:24.669Z,2.70
2018-11-03T18:44:53.164Z,2.80
2018-11-03T18:47:21.677Z,2.80
2018-11-03T18:49:50.088Z,2.70
2018-11-03T18:52:18.531Z,2.70
2018-11-03T18:54:53.272Z,2.60
2018-11-03T18:57:21.701Z,2.50
2018-11-03T18:59:50.141Z,2.40
2018-11-03T19:02:18.667Z,2.40
2018-11-03T19:04:47.092Z,2.40
2018-11-03T19:07:15.584Z,2.50
2018-11-03T19:09:44.470Z,2.40
2018-11-03T19:12:14.335Z,2.50
2018-11-03T19:14:42.804Z,2.40
2018-11-03T19:17:12.088Z,2.50
2018-11-03T19:19:40.508Z,2.50
2018-11-03T19:22:08.957Z,2.40
2018-11-03T19:24:37.381Z,2.30
2018-11-03T19:27:06.285Z,2.20
2018-11-03T19:29:34.802Z,2.00
2018-11-03T19:32:03.349Z,2.00
2018-11-03T19:34:31.792Z,2.00
2018-11-03T19:37:00.244Z,2.00
2018-11-03T19:39:28.693Z,2.00
2018-11-03T19:41:57.128Z,2.00
2018-11-03T19:44:25.564Z,1.90
2018-11-03T19:46:54.000Z,1.90
2018-11-03T19:49:22.414Z,1.90
2018-11-03T19:51:51.680Z,1.80
2018-11-03T19:54:20.096Z,1.70
2018-11-03T19:56:48.506Z,1.60
2018-11-03T19:59:16.929Z,1.60
2018-11-03T20:01:45.360Z,1.60
2018-11-03T20:04:13.781Z,1.60
2018-11-03T20:06:42.224Z,1.60
2018-11-03T20:09:10.705Z,1.60
2018-11-03T20:11:39.224Z,1.60
2018-11-03T20:14:08.199Z,1.60
2018-11-03T20:16:39.549Z,1.50
2018-11-03T20:19:08.021Z,1.40
2018-11-03T20:21:36.488Z,1.40
2018-11-03T20:24:05.310Z,1.30
2018-11-03T20:26:33.729Z,1.30
2018-11-03T20:29:02.244Z,1.40
2018-11-03T20:31:30.708Z,1.30
2018-11-03T20:33:59.275Z,1.40
2018-11-03T20:36:27.727Z,1.30
2018-11-03T20:38:56.154Z,1.20
2018-11-03T20:41:24.629Z,1.20
2018-11-03T20:43:53.020Z,1.20
2018-11-03T20:46:27.712Z,1.20
2018-11-03T20:48:56.104Z,1.20
2018-11-03T20:51:24.553Z,1.20
2018-11-03T20:53:53.481Z,1.20
2018-11-03T20:56:21.898Z,1.20
2018-11-03T20:58:50.358Z,1.20
2018-11-03T21:01:19.372Z,1.10
2018-11-03T21:03:47.845Z,1.10
2018-11-03T21:06:16.258Z,1.00
2018-11-03T21:08:44.765Z,1.00
2018-11-03T21:11:13.202Z,1.00
2018-11-03T21:13:41.692Z,0.90
2018-11-03T21:16:10.106Z,0.90
2018-11-03T21:18:38.862Z,0.90
2018-11-03T21:21:07.267Z,1.00
2018-11-03T21:23:35.767Z,0.90
2018-11-03T21:26:04.990Z,0.90
2018-11-03T21:28:33.441Z,1.00
2018-11-03T21:31:01.945Z,0.90
2018-11-03T21:33:30.424Z,0.90
2018-11-03T21:35:58.878Z,0.90
2018-11-03T21:38:27.279Z,0.90
2018-11-03T21:40:55.671Z,0.80
2018-11-03T21:43:24.086Z,0.70
2018-11-03T21:45:52.515Z,0.70
2018-11-03T21:48:20.978Z,0.80
2018-11-03T21:50:49.463Z,1.10
2018-11-03T21:53:17.871Z,1.10
2018-11-03T21:55:46.390Z,1.10
2018-11-03T21:58:14.786Z,1.00
2018-11-03T22:00:43.218Z,1.30
2018-11-03T22:03:11.678Z,1.50
2018-11-03T22:05:44.320Z,1.50
2018-11-03T22:08:12.725Z,1.60
2018-11-03T22:10:41.218Z,1.60
2018-11-03T22:13:10.376Z,1.50
2018-11-03T22:15:38.832Z,1.50
2018-11-03T22:18:07.345Z,1.50
2018-11-03T22:20:35.762Z,1.50
2018-11-03T22:23:04.960Z,1.50
2018-11-03T22:25:33.456Z,1.50
2018-11-03T22:28:02.106Z,1.60
2018-11-03T22:30:30.602Z,1.60
2018-11-03T22:32:59.620Z,1.70
2018-11-03T22:35:28.085Z,1.90
2018-11-03T22:37:56.690Z,1.90
2018-11-03T22:40:25.127Z,2.00
2018-11-03T22:42:53.670Z,2.10
2018-11-03T22:45:22.147Z,2.10
2018-11-03T22:47:51.328Z,2.10
2018-11-03T22:50:19.825Z,2.00
2018-11-03T22:52:48.241Z,1.90
2018-11-03T22:55:16.800Z,1.80
2018-11-03T22:57:45.351Z,1.70
2018-11-03T23:00:14.613Z,1.80
2018-11-03T23:02:43.840Z,1.70
2018-11-03T23:05:13.412Z,1.60
2018-11-03T23:07:42.075Z,1.60
2018-11-03T23:10:10.667Z,1.50
2018-11-03T23:12:39.861Z,1.40
2018-11-03T23:15:08.924Z,1.30
2018-11-03T23:17:37.307Z,1.20
2018-11-03T23:20:10.784Z,1.20
2018-11-03T23:22:39.513Z,1.20
2018-11-03T23:25:08.737Z,1.30
2018-11-03T23:27:37.249Z,1.30
2018-11-03T23:30:07.885Z,1.30
2018-11-03T23:32:36.445Z,1.30
2018-11-03T23:35:05.839Z,1.40
2018-11-03T23:37:34.309Z,1.50
2018-11-03T23:40:02.815Z,1.60
2018-11-03T23:42:31.275Z,1.60
2018-11-03T23:44:59.776Z,1.80
2018-11-03T23:47:28.178Z,1.80
2018-11-03T23:49:56.609Z,1.90
2018-11-03T23:52:30.456Z,1.90
2018-11-03T23:54:59.013Z,2.00
2018-11-03T23:57:27.896Z,1.90
2018-11-03T23:59:56.435Z,1.90
